createdAt,value
2019-03-20T00:02:13.185Z,1.89
2019-03-20T00:04:49.230Z,1.88
2019-03-20T00:07:11.591Z,1.87
2019-03-20T00:09:39.829Z,1.85
2019-03-20T00:12:08.067Z,1.82
2019-03-20T00:14:36.297Z,1.79
2019-03-20T00:17:04.539Z,1.78
2019-03-20T00:19:32.782Z,1.74
2019-03-20T00:22:01.019Z,1.75
2019-03-20T00:24:29.251Z,1.76
2019-03-20T00:26:57.489Z,1.75
2019-03-20T00:29:26.007Z,1.77
2019-03-20T00:31:54.240Z,1.72
2019-03-20T00:34:22.485Z,1.70
2019-03-20T00:36:50.715Z,1.67
2019-03-20T00:39:18.971Z,1.67
2019-03-20T00:41:47.234Z,1.67
2019-03-20T00:44:15.441Z,1.66
2019-03-20T00:46:43.674Z,1.65
2019-03-20T00:49:11.922Z,1.58
2019-03-20T00:51:40.151Z,1.57
2019-03-20T00:54:08.620Z,1.51
2019-03-20T00:56:36.845Z,1.48
2019-03-20T00:59:05.095Z,1.38
2019-03-20T01:01:33.324Z,1.37
2019-03-20T01:04:01.566Z,1.33
2019-03-20T01:06:29.813Z,1.28
2019-03-20T01:08:58.041Z,1.27
2019-03-20T01:11:26.283Z,1.21
2019-03-20T01:13:54.521Z,1.21
2019-03-20T01:16:22.768Z,1.20
2019-03-20T01:18:51.221Z,1.22
2019-03-20T01:21:19.467Z,1.21
2019-03-20T01:23:47.703Z,1.20
2019-03-20T01:26:15.942Z,1.23
2019-03-20T01:28:44.402Z,1.19
2019-03-20T01:31:12.881Z,1.14
2019-03-20T01:33:41.341Z,1.12
2019-03-20T01:36:09.580Z,1.10
2019-03-20T01:38:37.811Z,1.09
2019-03-20T01:41:06.287Z,1.03
2019-03-20T01:43:34.522Z,1.01
2019-03-20T01:46:02.980Z,0.99
2019-03-20T01:48:31.214Z,0.97
2019-03-20T01:51:14.907Z,0.93
2019-03-20T01:53:43.368Z,0.92
2019-03-20T01:56:11.599Z,0.91
2019-03-20T01:58:39.842Z,0.91
2019-03-20T02:01:08.071Z,0.90
2019-03-20T02:03:36.308Z,0.88
2019-03-20T02:06:04.580Z,0.85
2019-03-20T02:08:32.823Z,0.83
2019-03-20T02:11:01.059Z,0.79
2019-03-20T02:16:03.204Z,0.82
2019-03-20T02:18:31.445Z,0.85
2019-03-20T02:20:59.921Z,0.81
2019-03-20T02:23:28.174Z,0.80
2019-03-20T02:25:56.420Z,0.82
2019-03-20T02:28:24.929Z,0.80
2019-03-20T02:30:53.171Z,0.81
2019-03-20T02:33:21.647Z,0.78
2019-03-20T02:35:51.774Z,0.75
2019-03-20T02:38:20.309Z,0.71
2019-03-20T02:40:48.557Z,0.68
2019-03-20T02:43:16.799Z,0.63
2019-03-20T02:45:45.274Z,0.63
2019-03-20T02:48:13.526Z,0.58
2019-03-20T02:50:42.011Z,0.59
2019-03-20T02:53:10.225Z,0.56
2019-03-20T02:55:38.468Z,0.57
2019-03-20T02:58:06.702Z,0.58
2019-03-20T03:00:34.943Z,0.57
2019-03-20T03:03:03.185Z,0.54
2019-03-20T03:05:31.426Z,0.56
2019-03-20T03:07:59.659Z,0.58
2019-03-20T03:10:28.133Z,0.53
2019-03-20T03:12:56.372Z,0.53
2019-03-20T03:15:24.631Z,0.53
2019-03-20T03:17:52.875Z,0.48
2019-03-20T03:20:21.106Z,0.45
2019-03-20T03:22:49.357Z,0.43
2019-03-20T03:25:17.838Z,0.40
2019-03-20T03:27:46.300Z,0.38
2019-03-20T03:30:17.863Z,0.37
2019-03-20T03:32:46.370Z,0.34
2019-03-20T03:35:18.249Z,0.32
2019-03-20T03:37:45.045Z,0.29
2019-03-20T03:40:18.346Z,0.28
2019-03-20T03:42:47.006Z,0.27
2019-03-20T03:45:16.149Z,0.27
2019-03-20T03:47:44.441Z,0.26
2019-03-20T03:50:13.001Z,0.25
2019-03-20T03:52:41.307Z,0.29
2019-03-20T03:55:11.414Z,0.32
2019-03-20T03:57:40.210Z,0.29
2019-03-20T04:00:13.917Z,0.23
2019-03-20T04:02:42.159Z,0.21
2019-03-20T04:05:10.400Z,0.17
2019-03-20T04:07:38.873Z,0.15
2019-03-20T04:10:13.356Z,0.13
2019-03-20T04:12:41.671Z,0.12
2019-03-20T04:15:13.078Z,0.12
2019-03-20T04:17:41.390Z,0.10
2019-03-20T04:20:12.673Z,0.10
2019-03-20T04:22:41.038Z,0.09
2019-03-20T04:25:10.470Z,0.08
2019-03-20T04:27:38.706Z,0.05
2019-03-20T04:30:09.786Z,0.05
2019-03-20T04:32:38.019Z,0.03
2019-03-20T04:35:06.607Z,0.01
2019-03-20T04:37:34.848Z,-0.02
2019-03-20T04:40:03.605Z,-0.02
2019-03-20T04:42:31.842Z,-0.03
2019-03-20T04:45:00.313Z,-0.06
2019-03-20T04:47:28.510Z,-0.08
2019-03-20T04:49:56.756Z,-0.09
2019-03-20T04:52:25.224Z,-0.09
2019-03-20T04:54:53.473Z,-0.07
2019-03-20T04:57:21.711Z,-0.03
2019-03-20T04:59:49.960Z,-0.03
2019-03-20T05:02:18.200Z,-0.05
2019-03-20T05:04:46.454Z,-0.07
2019-03-20T05:07:14.707Z,-0.08
2019-03-20T05:09:43.204Z,-0.08
2019-03-20T05:12:11.445Z,-0.09
2019-03-20T05:14:39.693Z,-0.10
2019-03-20T05:17:07.931Z,-0.11
2019-03-20T05:19:36.176Z,-0.13
2019-03-20T05:22:04.428Z,-0.14
2019-03-20T05:24:32.660Z,-0.15
2019-03-20T05:27:01.136Z,-0.16
2019-03-20T05:29:29.598Z,-0.17
2019-03-20T05:31:57.862Z,-0.20
2019-03-20T05:34:26.340Z,-0.22
2019-03-20T05:36:54.613Z,-0.22
2019-03-20T05:39:22.855Z,-0.23
2019-03-20T05:41:51.108Z,-0.21
2019-03-20T05:44:19.341Z,-0.16
2019-03-20T05:46:47.588Z,-0.16
2019-03-20T05:49:15.828Z,-0.16
2019-03-20T05:51:44.078Z,-0.15
2019-03-20T05:54:12.317Z,-0.09
2019-03-20T05:56:40.570Z,-0.06
2019-03-20T05:59:09.039Z,-0.04
2019-03-20T06:01:37.511Z,-0.04
2019-03-20T06:04:05.758Z,-0.04
2019-03-20T06:06:34.251Z,-0.02
2019-03-20T06:09:02.490Z,0.00
2019-03-20T06:11:30.964Z,0.02
2019-03-20T06:13:59.206Z,0.04
2019-03-20T06:16:27.677Z,0.08
2019-03-20T06:18:55.927Z,0.12
2019-03-20T06:21:24.170Z,0.21
2019-03-20T06:23:52.408Z,0.29
2019-03-20T06:26:20.882Z,0.38
2019-03-20T06:28:49.116Z,0.45
2019-03-20T06:31:18.837Z,0.53
2019-03-20T06:33:47.407Z,0.59
2019-03-20T06:36:15.646Z,0.66
2019-03-20T06:38:43.884Z,0.73
2019-03-20T06:41:12.360Z,0.83
2019-03-20T06:43:40.599Z,0.97
2019-03-20T06:46:08.831Z,1.30
2019-03-20T06:48:37.076Z,1.75
2019-03-20T06:51:05.319Z,2.03
2019-03-20T06:53:33.560Z,2.10
2019-03-20T06:56:01.792Z,2.11
2019-03-20T06:58:30.038Z,2.13
2019-03-20T07:01:10.577Z,2.15
2019-03-20T07:03:47.949Z,2.18
2019-03-20T07:06:21.973Z,2.23
2019-03-20T07:09:02.575Z,2.29
2019-03-20T07:11:33.613Z,2.36
2019-03-20T07:14:01.850Z,2.45
2019-03-20T07:16:30.088Z,2.55
2019-03-20T07:18:58.326Z,2.64
2019-03-20T07:21:26.561Z,2.73
2019-03-20T07:23:54.796Z,2.83
2019-03-20T07:26:23.042Z,2.94
2019-03-20T07:28:51.512Z,3.05
2019-03-20T07:31:19.764Z,3.15
2019-03-20T07:33:48.063Z,3.28
2019-03-20T07:36:16.246Z,3.37
2019-03-20T07:38:44.490Z,3.53
2019-03-20T07:41:12.970Z,3.73
2019-03-20T07:43:41.212Z,4.04
2019-03-20T07:46:09.455Z,4.04
2019-03-20T07:48:37.691Z,4.15
2019-03-20T07:51:05.936Z,4.25
2019-03-20T07:53:34.177Z,4.41
2019-03-20T07:56:02.436Z,4.47
2019-03-20T07:58:30.676Z,4.47
2019-03-20T08:00:58.924Z,4.47
2019-03-20T08:03:27.170Z,4.62
2019-03-20T08:05:54.022Z,4.69
2019-03-20T08:08:22.260Z,4.84
2019-03-20T08:10:51.077Z,4.90
2019-03-20T08:13:19.607Z,4.98
2019-03-20T08:15:47.845Z,5.04
2019-03-20T08:18:16.078Z,5.04
2019-03-20T08:20:44.325Z,4.99
2019-03-20T08:23:12.764Z,5.07
2019-03-20T08:25:41.228Z,5.23
2019-03-20T08:28:09.477Z,5.40
2019-03-20T08:30:37.777Z,5.40
2019-03-20T08:33:06.246Z,5.48
2019-03-20T08:35:34.706Z,5.62
2019-03-20T08:38:03.173Z,5.62
2019-03-20T08:40:31.630Z,5.60
2019-03-20T08:42:59.867Z,5.70
2019-03-20T08:45:28.100Z,5.89
2019-03-20T08:47:56.340Z,5.90
2019-03-20T08:50:25.736Z,5.90
2019-03-20T08:52:54.205Z,6.08
2019-03-20T08:55:22.909Z,6.17
2019-03-20T08:57:51.540Z,6.26
2019-03-20T09:00:24.563Z,6.35
2019-03-20T09:02:52.996Z,6.43
2019-03-20T09:05:21.221Z,6.41
2019-03-20T09:07:49.464Z,6.60
2019-03-20T09:10:27.329Z,6.59
2019-03-20T09:12:55.571Z,6.79
2019-03-20T09:15:24.024Z,6.85
2019-03-20T09:17:52.272Z,6.94
2019-03-20T09:20:23.871Z,6.99
2019-03-20T09:22:52.123Z,7.09
2019-03-20T09:25:21.286Z,7.13
2019-03-20T09:27:49.540Z,7.29
2019-03-20T09:30:20.522Z,7.30
2019-03-20T09:32:48.928Z,7.36
2019-03-20T09:35:17.175Z,7.35
2019-03-20T09:37:51.730Z,7.42
2019-03-20T09:40:17.048Z,7.58
2019-03-20T09:42:45.509Z,7.66
2019-03-20T09:45:16.247Z,7.68
2019-03-20T09:47:44.552Z,7.76
2019-03-20T09:50:18.004Z,7.85
2019-03-20T09:52:46.457Z,7.88
2019-03-20T09:55:15.771Z,7.90
2019-03-20T09:57:44.004Z,7.99
2019-03-20T10:00:18.061Z,8.06
2019-03-20T10:02:46.588Z,8.20
2019-03-20T10:05:14.858Z,8.24
2019-03-20T10:07:43.360Z,8.29
2019-03-20T10:10:22.461Z,8.34
2019-03-20T10:12:50.693Z,8.39
2019-03-20T10:15:20.177Z,8.49
2019-03-20T10:17:48.408Z,8.55
2019-03-20T10:20:19.013Z,8.59
2019-03-20T10:22:47.309Z,8.64
2019-03-20T10:25:16.289Z,8.75
2019-03-20T10:27:44.592Z,8.88
2019-03-20T10:30:15.690Z,8.95
2019-03-20T10:32:44.215Z,9.05
2019-03-20T10:35:12.524Z,9.14
2019-03-20T10:37:40.756Z,9.27
2019-03-20T10:40:22.654Z,9.36
2019-03-20T10:42:51.122Z,9.45
2019-03-20T10:45:20.956Z,9.52
2019-03-20T10:47:52.676Z,9.55
2019-03-20T10:50:21.574Z,9.63
2019-03-20T10:52:50.137Z,9.71
2019-03-20T10:55:18.652Z,9.79
2019-03-20T10:57:47.058Z,9.88
2019-03-20T11:00:17.170Z,10.00
2019-03-20T11:02:45.409Z,10.12
2019-03-20T11:05:14.089Z,10.23
2019-03-20T11:07:42.558Z,10.33
2019-03-20T11:10:16.177Z,10.44
2019-03-20T11:12:44.635Z,10.54
2019-03-20T11:15:15.053Z,10.63
2019-03-20T11:17:43.291Z,10.71
2019-03-20T11:20:14.075Z,10.77
2019-03-20T11:22:42.748Z,10.79
2019-03-20T11:25:13.334Z,10.89
2019-03-20T11:27:41.598Z,10.99
2019-03-20T11:30:18.480Z,11.10
2019-03-20T11:32:46.714Z,11.11
2019-03-20T11:35:14.969Z,11.18
2019-03-20T11:37:43.210Z,11.20
2019-03-20T11:40:16.949Z,11.27
2019-03-20T11:42:45.424Z,11.32
2019-03-20T11:45:13.661Z,11.45
2019-03-20T11:50:32.645Z,11.61
2019-03-20T11:53:01.249Z,11.62
2019-03-20T11:55:29.918Z,11.70
2019-03-20T11:57:58.823Z,11.73
2019-03-20T12:00:27.063Z,11.78
2019-03-20T12:02:55.308Z,11.79
2019-03-20T12:05:23.771Z,11.81
2019-03-20T12:07:52.239Z,11.83
2019-03-20T12:10:22.979Z,11.87
2019-03-20T12:12:51.398Z,11.90
2019-03-20T12:15:19.633Z,11.93
2019-03-20T12:17:47.922Z,11.94
2019-03-20T12:20:19.336Z,11.97
2019-03-20T12:22:48.626Z,11.98
2019-03-20T12:25:19.567Z,12.04
2019-03-20T12:27:47.817Z,12.00
2019-03-20T12:30:18.909Z,12.03
2019-03-20T12:32:47.382Z,12.08
2019-03-20T12:35:17.279Z,12.16
2019-03-20T12:37:45.532Z,12.22
2019-03-20T12:40:19.225Z,12.25
2019-03-20T12:42:47.475Z,12.37
2019-03-20T12:45:21.981Z,12.43
2019-03-20T12:47:50.464Z,12.38
2019-03-20T12:50:18.922Z,12.35
2019-03-20T12:52:47.168Z,12.39
2019-03-20T12:55:17.168Z,12.41
2019-03-20T12:57:45.421Z,12.47
2019-03-20T13:00:21.689Z,12.46
2019-03-20T13:02:50.542Z,12.34
2019-03-20T13:05:19.305Z,12.44
2019-03-20T13:07:47.537Z,12.47
2019-03-20T13:10:26.239Z,12.50
2019-03-20T13:12:54.713Z,12.55
2019-03-20T13:15:26.749Z,12.50
2019-03-20T13:17:56.149Z,12.46
2019-03-20T13:20:24.562Z,12.49
2019-03-20T13:22:58.492Z,12.54
2019-03-20T13:25:26.733Z,12.57
2019-03-20T13:27:54.965Z,12.61
2019-03-20T13:30:29.245Z,12.63
2019-03-20T13:32:57.776Z,12.71
2019-03-20T13:35:26.254Z,12.75
2019-03-20T13:37:54.515Z,12.81
2019-03-20T13:40:22.763Z,12.82
2019-03-20T13:42:51.037Z,12.69
2019-03-20T13:45:22.113Z,12.70
2019-03-20T13:47:50.579Z,12.73
2019-03-20T13:50:18.889Z,12.77
2019-03-20T13:52:47.125Z,12.82
2019-03-20T13:55:16.336Z,12.86
2019-03-20T13:57:44.736Z,12.91
2019-03-20T14:00:18.104Z,13.01
2019-03-20T14:02:46.636Z,13.06
2019-03-20T14:05:14.949Z,13.10
2019-03-20T14:07:43.186Z,13.18
2019-03-20T14:10:24.311Z,13.24
2019-03-20T14:12:44.049Z,13.44
2019-03-20T14:15:13.862Z,13.57
2019-03-20T14:17:42.166Z,13.69
2019-03-20T14:20:18.405Z,13.82
2019-03-20T14:22:46.637Z,13.87
2019-03-20T14:25:15.280Z,13.98
2019-03-20T14:27:43.513Z,14.08
2019-03-20T14:30:14.796Z,14.23
2019-03-20T14:32:43.257Z,14.37
2019-03-20T14:35:11.506Z,14.52
2019-03-20T14:37:39.965Z,14.65
2019-03-20T14:40:13.901Z,14.83
2019-03-20T14:42:42.373Z,14.94
2019-03-20T14:45:12.776Z,15.09
2019-03-20T14:47:42.272Z,15.25
2019-03-20T14:50:14.245Z,15.29
2019-03-20T14:52:42.714Z,15.39
2019-03-20T14:55:12.714Z,15.43
2019-03-20T14:57:40.964Z,15.53
2019-03-20T15:00:17.883Z,15.53
2019-03-20T15:02:46.363Z,15.64
2019-03-20T15:05:14.889Z,15.79
2019-03-20T15:07:43.134Z,15.84
2019-03-20T15:10:16.529Z,15.86
2019-03-20T15:12:45.069Z,15.83
2019-03-20T15:15:36.925Z,15.76
2019-03-20T15:18:06.209Z,15.76
2019-03-20T15:20:34.741Z,15.77
2019-03-20T15:23:02.983Z,15.79
2019-03-20T15:25:31.445Z,15.82
2019-03-20T15:27:59.689Z,15.87
2019-03-20T15:30:29.724Z,15.91
2019-03-20T15:32:58.045Z,15.90
2019-03-20T15:35:26.282Z,15.99
2019-03-20T15:37:54.750Z,15.98
2019-03-20T15:40:24.149Z,15.88
2019-03-20T15:42:52.621Z,16.01
2019-03-20T15:45:20.854Z,16.05
2019-03-20T15:47:49.102Z,16.15
2019-03-20T15:50:29.427Z,16.19
2019-03-20T15:52:57.896Z,16.16
2019-03-20T15:55:36.606Z,16.18
2019-03-20T15:58:05.069Z,16.21
2019-03-20T16:00:33.532Z,16.07
2019-03-20T16:03:10.985Z,16.13
2019-03-20T16:05:39.445Z,16.06
2019-03-20T16:08:07.699Z,15.98
2019-03-20T16:10:35.999Z,15.89
2019-03-20T16:13:04.655Z,15.69
2019-03-20T16:15:32.889Z,15.51
2019-03-20T16:18:01.126Z,15.18
2019-03-20T16:20:29.595Z,14.89
2019-03-20T16:22:58.063Z,14.73
2019-03-20T16:25:26.529Z,14.52
2019-03-20T16:27:54.993Z,14.35
2019-03-20T16:30:33.625Z,14.05
2019-03-20T16:33:01.867Z,13.90
2019-03-20T16:35:30.339Z,13.75
2019-03-20T16:37:58.806Z,13.58
2019-03-20T16:40:34.258Z,13.34
2019-03-20T16:43:02.493Z,13.20
2019-03-20T16:45:37.590Z,12.91
2019-03-20T16:48:06.389Z,12.92
2019-03-20T16:50:34.635Z,12.75
2019-03-20T16:53:02.869Z,12.73
2019-03-20T16:55:31.115Z,12.62
2019-03-20T16:57:59.365Z,12.55
2019-03-20T17:00:34.022Z,12.45
2019-03-20T17:03:02.265Z,12.39
2019-03-20T17:05:31.375Z,12.32
2019-03-20T17:07:59.614Z,12.24
2019-03-20T17:10:41.684Z,12.12
2019-03-20T17:13:09.918Z,12.03
2019-03-20T17:15:42.559Z,11.92
2019-03-20T17:18:10.797Z,11.84
2019-03-20T17:20:39.040Z,11.72
2019-03-20T17:23:07.904Z,11.62
2019-03-20T17:25:36.272Z,11.52
2019-03-20T17:28:05.149Z,11.40
2019-03-20T17:30:39.360Z,11.28
2019-03-20T17:33:07.847Z,11.17
2019-03-20T17:35:36.082Z,11.06
2019-03-20T17:38:04.766Z,10.95
2019-03-20T17:40:33.010Z,10.83
2019-03-20T17:43:01.321Z,10.75
2019-03-20T17:45:29.902Z,10.66
2019-03-20T17:47:58.216Z,10.57
2019-03-20T17:50:30.693Z,10.49
2019-03-20T17:52:59.171Z,10.47
2019-03-20T17:55:27.408Z,10.39
2019-03-20T17:57:55.675Z,10.33
2019-03-20T18:00:30.007Z,10.30
2019-03-20T18:02:58.246Z,10.26
2019-03-20T18:05:26.524Z,10.20
2019-03-20T18:07:54.732Z,10.13
2019-03-20T18:10:22.980Z,10.04
2019-03-20T18:12:51.218Z,9.96
2019-03-20T18:15:19.870Z,9.90
2019-03-20T18:17:48.344Z,9.80
2019-03-20T18:20:18.794Z,9.70
2019-03-20T18:22:47.032Z,9.59
2019-03-20T18:25:15.582Z,9.51
2019-03-20T18:27:43.822Z,9.41
2019-03-20T18:30:21.091Z,9.34
2019-03-20T18:32:49.837Z,9.29
2019-03-20T18:35:18.250Z,9.21
2019-03-20T18:37:46.656Z,9.11
2019-03-20T18:40:17.530Z,9.02
2019-03-20T18:42:45.839Z,8.93
2019-03-20T18:45:21.865Z,8.84
2019-03-20T18:47:50.330Z,8.74
2019-03-20T18:50:19.438Z,8.67
2019-03-20T18:52:48.155Z,8.58
2019-03-20T18:55:17.430Z,8.51
2019-03-20T18:57:45.912Z,8.38
2019-03-20T19:00:27.538Z,8.36
2019-03-20T19:03:04.815Z,8.30
2019-03-20T19:05:36.467Z,8.25
2019-03-20T19:08:04.949Z,8.18
2019-03-20T19:10:33.185Z,8.13
2019-03-20T19:13:01.659Z,8.06
2019-03-20T19:15:29.916Z,8.01
2019-03-20T19:17:58.134Z,7.99
2019-03-20T19:20:26.370Z,7.95
2019-03-20T19:22:54.847Z,7.89
2019-03-20T19:25:23.085Z,7.81
2019-03-20T19:27:51.329Z,7.72
2019-03-20T19:30:24.658Z,7.65
2019-03-20T19:32:53.210Z,7.58
2019-03-20T19:35:21.678Z,7.50
2019-03-20T19:37:50.163Z,7.41
2019-03-20T19:40:19.626Z,7.36
2019-03-20T19:42:47.866Z,7.34
2019-03-20T19:45:16.840Z,7.28
2019-03-20T19:47:45.375Z,7.22
2019-03-20T19:50:15.290Z,7.19
2019-03-20T19:52:43.685Z,7.14
2019-03-20T19:55:15.966Z,7.10
2019-03-20T19:57:44.502Z,7.09
2019-03-20T20:00:19.203Z,7.03
2019-03-20T20:02:47.438Z,6.99
2019-03-20T20:05:16.412Z,6.95
2019-03-20T20:07:44.759Z,6.91
2019-03-20T20:10:16.747Z,6.86
2019-03-20T20:12:44.980Z,6.81
2019-03-20T20:15:15.686Z,6.77
2019-03-20T20:17:44.173Z,6.73
2019-03-20T20:20:18.940Z,6.68
2019-03-20T20:22:47.191Z,6.60
2019-03-20T20:25:15.428Z,6.57
2019-03-20T20:27:43.662Z,6.53
2019-03-20T20:30:19.029Z,6.51
2019-03-20T20:32:47.249Z,6.50
2019-03-20T20:35:16.532Z,6.45
2019-03-20T20:37:45.716Z,6.41
2019-03-20T20:40:18.724Z,6.36
2019-03-20T20:42:47.190Z,6.34
2019-03-20T20:45:15.503Z,6.33
2019-03-20T20:47:43.741Z,6.31
2019-03-20T20:50:13.720Z,6.29
2019-03-20T20:52:42.266Z,6.24
2019-03-20T20:55:13.444Z,6.23
2019-03-20T20:57:41.698Z,6.21
2019-03-20T21:00:16.083Z,6.20
2019-03-20T21:02:44.332Z,6.20
2019-03-20T21:05:12.635Z,6.20
2019-03-20T21:07:40.895Z,6.18
2019-03-20T21:10:12.526Z,6.14
2019-03-20T21:12:42.715Z,6.10
2019-03-20T21:15:19.552Z,6.07
2019-03-20T21:17:53.787Z,6.03
2019-03-20T21:20:22.027Z,5.99
2019-03-20T21:23:26.437Z,5.96
2019-03-20T21:25:56.054Z,5.93
2019-03-20T21:28:46.768Z,5.93
2019-03-20T21:31:16.180Z,5.96
2019-03-20T21:34:08.573Z,5.97
2019-03-20T21:36:54.682Z,5.96
2019-03-20T21:39:22.927Z,5.92
2019-03-20T21:42:18.388Z,5.86
2019-03-20T21:45:24.089Z,5.85
2019-03-20T21:47:52.331Z,5.84
2019-03-20T21:50:40.001Z,5.81
2019-03-20T21:53:11.775Z,5.78
2019-03-20T21:56:16.527Z,5.76
2019-03-20T21:58:51.043Z,5.73
2019-03-20T22:01:41.846Z,5.70
2019-03-20T22:04:10.105Z,5.68
2019-03-20T22:07:01.168Z,5.70
2019-03-20T22:09:53.687Z,5.72
2019-03-20T22:12:34.046Z,5.71
2019-03-20T22:15:13.971Z,5.66
2019-03-20T22:18:04.690Z,5.70
2019-03-20T22:20:36.328Z,5.67
2019-03-20T22:23:33.261Z,5.63
2019-03-20T22:26:26.759Z,5.60
2019-03-20T22:29:14.227Z,5.55
2019-03-20T22:31:48.526Z,5.51
2019-03-20T22:34:36.496Z,5.53
2019-03-20T22:37:04.730Z,5.58
2019-03-20T22:39:59.051Z,5.61
2019-03-20T22:42:39.686Z,5.63
2019-03-20T22:45:22.953Z,5.66
2019-03-20T22:47:56.812Z,5.68
2019-03-20T22:50:44.302Z,5.67
2019-03-20T22:53:24.356Z,5.63
2019-03-20T22:56:19.722Z,5.55
2019-03-20T22:58:47.973Z,5.46
2019-03-20T23:01:19.777Z,5.36
2019-03-20T23:03:54.129Z,5.36
2019-03-20T23:06:22.372Z,5.31
2019-03-20T23:08:50.621Z,5.20
2019-03-20T23:11:19.078Z,5.18
2019-03-20T23:13:47.314Z,5.17
2019-03-20T23:16:18.734Z,5.17
2019-03-20T23:18:46.969Z,5.17
2019-03-20T23:21:15.231Z,5.16
2019-03-20T23:23:43.490Z,5.15
2019-03-20T23:26:11.738Z,5.13
2019-03-20T23:28:40.958Z,5.13
2019-03-20T23:31:09.434Z,5.12
2019-03-20T23:33:37.898Z,5.12
2019-03-20T23:36:06.218Z,5.10
2019-03-20T23:38:34.468Z,5.08
2019-03-20T23:41:02.711Z,4.96
2019-03-20T23:43:30.949Z,4.99
2019-03-20T23:45:59.439Z,4.99
2019-03-20T23:48:33.975Z,4.76
2019-03-20T23:51:08.259Z,4.76
2019-03-20T23:53:36.876Z,4.86
2019-03-20T23:56:05.084Z,4.86
2019-03-20T23:58:33.560Z,4.79
